Time;durP1;ratioP1;P1;durP2;ratioP2;P2;SDS_P1;SDS_P2;PMS_P1;PMS_P2;Temp;Humidity;BMP_temperature;BMP_pressure;BME280_temperature;BME280_humidity;BME280_pressure;Samples;Min_cycle;Max_cycle;Signal;HPM_P1;HPM_P2
2022/04/06 00:01:03;;;;;;;2.50;1.10;;;10.10;99.90;;;;;;4935095;29;20327;-67
2022/04/06 00:03:30;;;;;;;2.43;1.00;;;10.10;99.90;;;;;;4935974;29;20212;-69
2022/04/06 00:05:58;;;;;;;2.33;0.73;;;10.10;99.90;;;;;;4935051;29;20700;-67
2022/04/06 00:08:25;;;;;;;4.63;1.00;;;10.20;99.90;;;;;;4935282;29;20291;-68
2022/04/06 00:10:52;;;;;;;5.87;1.40;;;10.10;99.90;;;;;;4934579;29;20229;-70
2022/04/06 00:13:19;;;;;;;6.47;1.10;;;10.10;99.90;;;;;;4934805;29;20705;-67
2022/04/06 00:15:45;;;;;;;3.13;1.07;;;10.10;99.90;;;;;;4935656;29;20663;-66
2022/04/06 00:18:12;;;;;;;6.07;1.00;;;10.10;99.90;;;;;;4935658;29;20666;-67
2022/04/06 00:20:39;;;;;;;4.77;1.27;;;10.10;99.90;;;;;;4935626;29;20233;-69
2022/04/06 00:23:07;;;;;;;3.63;0.97;;;10.10;99.90;;;;;;4935681;29;20209;-67
2022/04/06 00:25:34;;;;;;;6.83;1.30;;;10.10;99.90;;;;;;4935304;29;20666;-67
2022/04/06 00:28:01;;;;;;;3.47;1.00;;;10.20;99.90;;;;;;4932270;29;20296;-66
2022/04/06 00:30:28;;;;;;;4.13;1.30;;;10.20;99.90;;;;;;4926490;29;20236;-70
2022/04/06 00:32:55;;;;;;;8.07;1.63;;;10.20;99.90;;;;;;4935479;29;20247;-71
2022/04/06 00:35:31;;;;;;;4.77;1.80;;;10.20;99.90;;;;;;4935179;29;20570;-66
2022/04/06 00:37:59;;;;;;;6.80;1.20;;;10.10;99.90;;;;;;4935031;29;20215;-69
2022/04/06 00:40:28;;;;;;;4.87;1.30;;;10.20;99.90;;;;;;4935362;29;20233;-69
2022/04/06 00:42:55;;;;;;;6.47;1.20;;;10.20;99.90;;;;;;4935118;29;20209;-66
2022/04/06 00:45:23;;;;;;;3.57;1.20;;;10.20;99.90;;;;;;4935631;29;20205;-66
2022/04/06 00:47:50;;;;;;;6.87;1.20;;;10.20;99.90;;;;;;4934931;29;20257;-67
2022/04/06 00:50:18;;;;;;;8.10;1.20;;;10.20;99.90;;;;;;4934600;29;20239;-70
2022/04/06 00:52:45;;;;;;;3.60;1.00;;;10.10;99.90;;;;;;4935101;29;20236;-66
2022/04/06 00:55:13;;;;;;;4.77;1.20;;;10.10;99.90;;;;;;4935089;29;20562;-69
2022/04/06 00:57:41;;;;;;;5.67;1.50;;;10.20;99.90;;;;;;4935020;29;20243;-66
2022/04/06 01:00:10;;;;;;;6.00;1.47;;;10.20;99.90;;;;;;4935374;29;20213;-66
2022/04/06 01:02:37;;;;;;;5.73;1.93;;;10.20;99.90;;;;;;4935100;29;20656;-67
2022/04/06 01:05:04;;;;;;;7.13;1.53;;;10.20;99.90;;;;;;4933590;29;20201;-69
2022/04/06 01:07:31;;;;;;;7.47;1.40;;;10.20;99.90;;;;;;4934034;29;20563;-68
2022/04/06 01:09:58;;;;;;;3.63;0.97;;;10.20;99.90;;;;;;4934015;29;20220;-66
2022/04/06 01:12:25;;;;;;;8.57;1.47;;;10.20;99.90;;;;;;4934251;29;20716;-70
2022/04/06 01:14:54;;;;;;;3.47;1.23;;;10.10;99.90;;;;;;4934080;29;20211;-70
2022/04/06 01:17:21;;;;;;;8.97;1.30;;;10.10;99.90;;;;;;4935012;29;20209;-70
2022/04/06 01:19:48;;;;;;;4.00;1.07;;;10.10;99.90;;;;;;4934929;29;20241;-66
2022/04/06 01:22:18;;;;;;;5.00;1.53;;;10.20;99.90;;;;;;4934160;29;20227;-65
2022/04/06 01:24:48;;;;;;;3.20;1.30;;;10.10;99.90;;;;;;4934694;29;20212;-67
2022/04/06 01:27:15;;;;;;;4.40;1.30;;;10.10;99.90;;;;;;4935096;29;20215;-66
2022/04/06 01:29:43;;;;;;;5.33;1.17;;;10.10;99.90;;;;;;4934305;29;20201;-66
2022/04/06 01:32:11;;;;;;;6.97;1.33;;;10.10;99.90;;;;;;4934447;29;20255;-70
2022/04/06 01:34:39;;;;;;;1.67;0.90;;;10.00;99.90;;;;;;4934768;29;20227;-67
2022/04/06 01:37:07;;;;;;;4.93;1.10;;;9.90;99.90;;;;;;4934224;29;20666;-71
2022/04/06 01:39:37;;;;;;;5.47;0.83;;;10.00;99.90;;;;;;4934812;29;20220;-68
2022/04/06 01:42:05;;;;;;;5.10;1.00;;;10.00;99.90;;;;;;4934893;29;20612;-66
2022/04/06 01:44:32;;;;;;;4.43;1.20;;;10.00;99.90;;;;;;4934557;29;20213;-70
2022/04/06 01:46:59;;;;;;;2.50;0.80;;;10.00;99.90;;;;;;4934605;29;20216;-67
2022/04/06 01:52:14;;;;;;;5.30;0.80;;;10.10;99.90;;;;;;4934751;29;20304;-71
2022/04/06 01:54:44;;;;;;;5.57;1.30;;;10.10;99.90;;;;;;4934550;29;20264;-69
2022/04/06 01:57:11;;;;;;;2.60;0.77;;;10.10;99.90;;;;;;4934629;29;20227;-67
2022/04/06 01:59:38;;;;;;;5.00;0.90;;;10.10;99.90;;;;;;4934481;29;20216;-69
2022/04/06 02:02:06;;;;;;;5.23;0.83;;;10.10;99.90;;;;;;4936674;29;20228;-66
2022/04/06 02:04:33;;;;;;;6.27;1.10;;;10.10;99.90;;;;;;4938179;29;20215;-70
2022/04/06 02:07:00;;;;;;;4.67;0.97;;;10.00;99.90;;;;;;4938260;29;20205;-66
2022/04/06 02:09:26;;;;;;;6.40;1.00;;;10.00;99.90;;;;;;4938215;29;20220;-66
2022/04/06 02:11:56;;;;;;;8.80;1.37;;;10.00;99.90;;;;;;4938039;29;20240;-70
2022/04/06 02:14:23;;;;;;;5.07;1.27;;;10.00;99.90;;;;;;4938247;29;20896;-66
2022/04/06 02:16:50;;;;;;;6.00;1.10;;;10.00;99.90;;;;;;4938046;29;20208;-65
2022/04/06 02:19:17;;;;;;;4.43;1.27;;;9.90;99.90;;;;;;4938130;29;20220;-70
2022/04/06 02:21:44;;;;;;;3.73;1.00;;;9.90;99.90;;;;;;4938214;29;20310;-67
2022/04/06 02:24:10;;;;;;;8.30;1.13;;;9.90;99.90;;;;;;4937330;29;20680;-66
2022/04/06 02:26:37;;;;;;;5.43;1.50;;;9.90;99.90;;;;;;4937846;29;20215;-66
2022/04/06 02:29:05;;;;;;;5.93;1.20;;;9.90;99.90;;;;;;4937763;29;20231;-69
2022/04/06 02:31:34;;;;;;;5.77;1.17;;;9.80;99.90;;;;;;4937448;29;20235;-71
2022/04/06 02:34:01;;;;;;;5.00;1.10;;;9.90;99.90;;;;;;4937538;29;20236;-67
2022/04/06 02:36:27;;;;;;;3.73;1.00;;;10.00;99.90;;;;;;4937177;29;20219;-71
2022/04/06 02:38:54;;;;;;;4.37;1.00;;;10.00;99.90;;;;;;4937747;29;20283;-66
2022/04/06 02:41:21;;;;;;;2.07;1.00;;;10.00;99.90;;;;;;4937873;29;20225;-70
2022/04/06 02:43:48;;;;;;;4.97;0.93;;;10.10;99.90;;;;;;4937370;29;20209;-68
2022/04/06 02:46:16;;;;;;;4.33;1.13;;;10.00;99.90;;;;;;4937929;29;20219;-70
2022/04/06 02:48:43;;;;;;;3.67;0.90;;;9.90;99.90;;;;;;4937824;29;20219;-69
2022/04/06 02:51:10;;;;;;;2.03;1.10;;;9.80;99.90;;;;;;4937220;29;20236;-67
2022/04/06 02:53:36;;;;;;;6.13;1.30;;;9.90;99.90;;;;;;4937528;29;20246;-70
2022/04/06 02:56:04;;;;;;;3.37;1.07;;;9.90;99.90;;;;;;4936768;29;20995;-71
2022/04/06 02:58:31;;;;;;;3.53;0.90;;;9.90;99.90;;;;;;4937073;29;20570;-69
2022/04/06 03:00:58;;;;;;;10.80;1.30;;;9.90;99.90;;;;;;4937125;29;20232;-66
2022/04/06 03:03:27;;;;;;;5.83;1.40;;;9.90;99.90;;;;;;4937294;29;20574;-66
2022/04/06 03:05:54;;;;;;;5.50;1.33;;;9.90;99.90;;;;;;4937571;29;20283;-66
2022/04/06 03:08:20;;;;;;;3.00;1.00;;;9.90;99.90;;;;;;4937218;29;20547;-67
2022/04/06 03:10:47;;;;;;;2.57;1.03;;;9.90;99.90;;;;;;4936873;29;20225;-70
2022/04/06 03:13:14;;;;;;;6.03;1.43;;;9.90;99.90;;;;;;4935606;29;20238;-68
2022/04/06 03:15:42;;;;;;;6.03;1.20;;;9.80;99.90;;;;;;4937137;29;20205;-69
2022/04/06 03:18:09;;;;;;;2.93;0.93;;;9.80;99.90;;;;;;4937154;29;20212;-67
2022/04/06 03:20:37;;;;;;;2.83;0.90;;;9.90;99.90;;;;;;4936203;29;20713;-66
2022/04/06 03:23:04;;;;;;;8.73;1.60;;;9.90;99.90;;;;;;4936340;29;20239;-67
2022/04/06 03:25:31;;;;;;;7.43;1.23;;;9.90;99.90;;;;;;4936461;29;20212;-66
2022/04/06 03:27:58;;;;;;;3.60;1.23;;;9.80;99.90;;;;;;4936595;29;20215;-66
2022/04/06 03:30:25;;;;;;;3.73;0.80;;;9.70;99.90;;;;;;4936583;29;20235;-69
2022/04/06 03:32:51;;;;;;;2.93;1.27;;;9.70;99.90;;;;;;4936625;29;20215;-70
2022/04/06 03:35:18;;;;;;;7.30;1.40;;;9.80;99.90;;;;;;4935940;29;20559;-67
2022/04/06 03:37:47;;;;;;;2.00;0.80;;;9.80;99.90;;;;;;4935955;29;20212;-66
2022/04/06 03:40:13;;;;;;;4.37;0.93;;;9.80;99.90;;;;;;4935924;29;20219;-69
2022/04/06 03:42:40;;;;;;;3.67;1.00;;;9.80;99.90;;;;;;4936262;29;20271;-66
2022/04/06 03:45:08;;;;;;;2.87;1.43;;;9.80;99.90;;;;;;4936437;29;20244;-66
2022/04/06 03:47:36;;;;;;;3.93;0.90;;;9.80;99.90;;;;;;4936443;29;20219;-67
2022/04/06 03:50:04;;;;;;;5.90;1.10;;;9.80;99.90;;;;;;4935497;29;20208;-69
2022/04/06 03:52:31;;;;;;;4.20;0.77;;;9.80;99.90;;;;;;4935706;29;20677;-69
2022/04/06 03:55:00;;;;;;;4.20;1.33;;;9.80;99.90;;;;;;4934946;29;20236;-70
2022/04/06 03:57:27;;;;;;;4.87;1.10;;;9.80;99.90;;;;;;4936046;29;20236;-66
2022/04/06 03:59:54;;;;;;;2.63;0.90;;;9.80;99.90;;;;;;4935856;29;20235;-66
2022/04/06 04:02:21;;;;;;;6.60;1.17;;;9.80;99.90;;;;;;4935904;29;20239;-70
2022/04/06 04:04:47;;;;;;;5.47;0.97;;;9.80;99.90;;;;;;4935683;29;20209;-67
2022/04/06 04:07:20;;;;;;;2.80;0.70;;;9.80;99.90;;;;;;4935926;29;20919;-68
2022/04/06 04:09:48;;;;;;;3.60;0.87;;;9.70;99.90;;;;;;4936111;29;20298;-69
2022/04/06 04:12:16;;;;;;;5.50;1.20;;;9.70;99.90;;;;;;4927666;29;20230;-66
2022/04/06 04:14:43;;;;;;;3.20;1.03;;;9.70;99.90;;;;;;4916759;29;20237;-66
2022/04/06 04:17:10;;;;;;;8.23;1.00;;;9.60;99.90;;;;;;4916690;29;20296;-70
2022/04/06 04:19:37;;;;;;;5.03;1.10;;;9.50;99.90;;;;;;4916587;29;20213;-69
2022/04/06 04:22:04;;;;;;;4.70;1.50;;;9.50;99.90;;;;;;4916475;29;20225;-67
2022/04/06 04:24:31;;;;;;;6.17;1.07;;;9.60;99.90;;;;;;4916243;29;20210;-70
2022/04/06 04:26:58;;;;;;;4.27;0.80;;;9.60;99.90;;;;;;4916486;29;20667;-67
2022/04/06 04:29:26;;;;;;;3.20;1.10;;;9.60;99.90;;;;;;4934656;29;20241;-67
2022/04/06 04:31:53;;;;;;;2.27;1.23;;;9.70;99.90;;;;;;4935319;29;20232;-67
2022/04/06 04:34:20;;;;;;;3.90;1.20;;;9.70;99.90;;;;;;4935849;29;20248;-71
2022/04/06 04:36:46;;;;;;;4.10;1.07;;;9.70;99.90;;;;;;4935169;29;20213;-67
2022/04/06 04:39:13;;;;;;;3.63;1.30;;;9.70;99.90;;;;;;4935743;29;20215;-67
2022/04/06 04:41:40;;;;;;;3.43;1.03;;;9.70;99.90;;;;;;4935699;29;20229;-67
2022/04/06 04:44:07;;;;;;;3.97;1.07;;;9.60;99.90;;;;;;4935733;29;20215;-67
2022/04/06 04:46:35;;;;;;;5.23;1.20;;;9.60;99.90;;;;;;4934946;29;20208;-68
2022/04/06 04:49:02;;;;;;;1.40;0.93;;;9.40;99.90;;;;;;4935683;29;20754;-68
2022/04/06 04:51:29;;;;;;;2.97;1.10;;;9.30;99.90;;;;;;4923986;29;20268;-69
2022/04/06 04:53:57;;;;;;;3.10;1.00;;;9.40;99.90;;;;;;4916579;29;20237;-68
2022/04/06 04:56:24;;;;;;;3.47;1.10;;;9.40;99.90;;;;;;4926487;29;20208;-73
2022/04/06 04:58:51;;;;;;;2.60;1.13;;;9.40;99.90;;;;;;4935231;29;20213;-72
2022/04/06 05:01:18;;;;;;;4.53;1.30;;;9.40;99.90;;;;;;4924930;29;20225;-69
2022/04/06 05:03:48;;;;;;;2.73;1.13;;;9.40;99.90;;;;;;4931405;29;20204;-67
2022/04/06 05:06:15;;;;;;;2.57;1.20;;;9.30;99.90;;;;;;4934328;29;20197;-70
2022/04/06 05:08:42;;;;;;;5.77;1.57;;;9.40;99.90;;;;;;4935017;29;20208;-67
2022/04/06 05:11:09;;;;;;;5.37;1.50;;;9.40;99.90;;;;;;4934777;29;20232;-67
2022/04/06 05:13:36;;;;;;;4.50;1.00;;;9.30;99.90;;;;;;4934944;29;20236;-68
2022/04/06 05:16:03;;;;;;;3.83;1.27;;;9.30;99.90;;;;;;4935255;29;20264;-67
2022/04/06 05:18:30;;;;;;;4.37;1.10;;;9.20;99.90;;;;;;4928837;29;20197;-67
2022/04/06 05:20:59;;;;;;;4.83;1.40;;;9.20;99.90;;;;;;4934578;29;20250;-67
2022/04/06 05:23:26;;;;;;;2.73;1.00;;;9.20;99.90;;;;;;4921333;29;20210;-68
2022/04/06 05:25:52;;;;;;;4.40;1.10;;;9.20;99.90;;;;;;4916124;29;20214;-67
2022/04/06 05:28:19;;;;;;;4.00;1.10;;;9.20;99.90;;;;;;4915930;29;20683;-67
2022/04/06 05:30:47;;;;;;;6.53;0.93;;;9.20;99.90;;;;;;4917549;29;20236;-66
2022/04/06 05:33:14;;;;;;;3.10;1.00;;;9.10;99.90;;;;;;4915857;29;20268;-69
2022/04/06 05:35:40;;;;;;;4.40;1.00;;;9.20;99.90;;;;;;4916935;29;20215;-67
2022/04/06 05:38:09;;;;;;;3.93;0.90;;;9.10;99.90;;;;;;4920283;29;20552;-67
2022/04/06 05:40:36;;;;;;;3.70;0.87;;;9.10;99.90;;;;;;4938422;29;20224;-69
2022/04/06 05:43:03;;;;;;;3.87;1.03;;;9.10;99.90;;;;;;4938607;29;20251;-70
2022/04/06 05:45:30;;;;;;;3.83;1.20;;;9.00;99.90;;;;;;4938455;29;20255;-67
2022/04/06 05:47:56;;;;;;;5.77;1.20;;;9.00;99.90;;;;;;4938367;29;20205;-67
2022/04/06 05:50:23;;;;;;;5.13;1.10;;;9.00;99.90;;;;;;4938441;29;20235;-69
2022/04/06 05:52:50;;;;;;;4.37;0.90;;;9.00;99.90;;;;;;4937698;29;20201;-67
2022/04/06 05:55:18;;;;;;;4.37;2.20;;;9.10;99.90;;;;;;4938166;29;20236;-67
2022/04/06 05:57:45;;;;;;;1.90;0.60;;;9.10;99.90;;;;;;4930615;29;20210;-67
2022/04/06 06:00:14;;;;;;;4.53;0.80;;;9.20;99.90;;;;;;4919174;29;20216;-67
2022/04/06 06:02:42;;;;;;;1.30;0.73;;;9.30;99.90;;;;;;4932262;29;20244;-71
2022/04/06 06:05:09;;;;;;;3.87;0.77;;;9.30;99.90;;;;;;4936020;29;20896;-67
2022/04/06 06:07:36;;;;;;;1.80;0.60;;;9.30;99.90;;;;;;4925722;29;20254;-71
2022/04/06 06:10:04;;;;;;;4.73;0.70;;;9.40;99.90;;;;;;4918435;29;20694;-67
2022/04/06 06:12:32;;;;;;;4.07;0.90;;;9.50;99.90;;;;;;4918764;29;20212;-68
2022/04/06 06:15:00;;;;;;;3.70;0.63;;;9.50;99.90;;;;;;4918396;29;20626;-71
2022/04/06 06:17:27;;;;;;;1.30;0.40;;;9.60;99.90;;;;;;4918532;29;20689;-70
2022/04/06 06:19:53;;;;;;;0.97;0.60;;;9.70;99.90;;;;;;4923941;29;20205;-70
2022/04/06 06:22:20;;;;;;;2.77;0.70;;;9.70;99.90;;;;;;4936703;29;20225;-73
2022/04/06 06:24:47;;;;;;;1.70;0.50;;;9.70;99.90;;;;;;4932436;29;20574;-71
2022/04/06 06:27:19;;;;;;;1.80;0.60;;;9.70;99.90;;;;;;4942659;28;20227;-70
2022/04/06 06:29:48;;;;;;;1.23;0.60;;;9.70;99.90;;;;;;4937154;29;20220;-67
2022/04/06 06:32:15;;;;;;;0.60;0.50;;;9.80;99.90;;;;;;4937358;29;20236;-68
2022/04/06 06:34:41;;;;;;;2.50;0.60;;;9.80;99.90;;;;;;4937323;29;20713;-71
2022/04/06 06:37:10;;;;;;;5.23;0.80;;;9.80;99.90;;;;;;4936472;29;20201;-71
2022/04/06 06:39:37;;;;;;;4.50;0.70;;;9.90;99.90;;;;;;4937398;29;20213;-67
2022/04/06 06:42:05;;;;;;;2.20;0.50;;;9.90;99.90;;;;;;4937365;29;20240;-70
2022/04/06 06:44:32;;;;;;;1.90;0.57;;;9.90;99.90;;;;;;4937298;29;20674;-66
2022/04/06 06:47:00;;;;;;;3.40;0.50;;;10.00;99.90;;;;;;4937265;29;20209;-72
2022/04/06 06:49:27;;;;;;;3.57;0.60;;;10.00;99.90;;;;;;4937199;29;20213;-70
2022/04/06 06:51:54;;;;;;;2.27;0.60;;;10.00;99.90;;;;;;4937258;29;20733;-70
2022/04/06 06:54:21;;;;;;;5.03;0.60;;;10.00;99.90;;;;;;4937386;29;20243;-70
2022/04/06 06:56:47;;;;;;;1.23;0.50;;;10.10;99.90;;;;;;4936557;29;20565;-69
2022/04/06 06:59:14;;;;;;;2.03;0.50;;;10.20;99.90;;;;;;4931435;29;20204;-70
2022/04/06 07:01:41;;;;;;;2.93;0.50;;;10.40;99.90;;;;;;4919744;29;20222;-71
2022/04/06 07:04:09;;;;;;;6.17;0.60;;;10.30;99.90;;;;;;4934918;29;20212;-70
2022/04/06 07:06:36;;;;;;;1.60;0.57;;;10.40;99.90;;;;;;4936923;29;20201;-70
2022/04/06 07:09:03;;;;;;;2.43;0.50;;;10.30;99.90;;;;;;4937282;29;20208;-69
2022/04/06 07:11:30;;;;;;;2.73;0.70;;;10.20;99.90;;;;;;4936861;29;20240;-70
2022/04/06 07:13:56;;;;;;;0.80;0.40;;;10.10;99.90;;;;;;4936612;29;20205;-72
2022/04/06 07:16:23;;;;;;;3.97;0.70;;;10.20;99.90;;;;;;4937236;29;20208;-70
2022/04/06 07:18:50;;;;;;;13.40;1.80;;;10.20;99.90;;;;;;4936907;29;20216;-68
2022/04/06 07:21:18;;;;;;;4.80;0.60;;;10.10;99.90;;;;;;4931162;29;20240;-71
2022/04/06 07:23:45;;;;;;;3.87;0.60;;;10.10;99.90;;;;;;4918028;29;20209;-67
2022/04/06 07:26:16;;;;;;;2.50;0.57;;;10.10;99.90;;;;;;4917758;29;20213;-71
2022/04/06 07:28:44;;;;;;;3.20;0.50;;;10.10;99.90;;;;;;4917537;29;20726;-67
2022/04/06 07:31:11;;;;;;;1.20;0.70;;;10.00;99.90;;;;;;4917137;29;20296;-71
2022/04/06 07:33:38;;;;;;;1.30;0.50;;;10.10;99.90;;;;;;4917373;29;20726;-70
2022/04/06 07:36:05;;;;;;;2.50;0.50;;;10.00;99.90;;;;;;4917841;29;20237;-69
2022/04/06 07:38:33;;;;;;;1.60;0.40;;;10.00;99.90;;;;;;4917803;29;20225;-72
2022/04/06 07:41:00;;;;;;;6.03;0.63;;;10.10;99.90;;;;;;4932880;29;20311;-70
2022/04/06 07:43:27;;;;;;;6.80;0.83;;;10.00;99.90;;;;;;4936182;29;20224;-66
2022/04/06 07:45:54;;;;;;;4.20;0.70;;;10.10;99.90;;;;;;4933280;29;20205;-70
2022/04/06 07:48:22;;;;;;;1.07;0.40;;;10.00;99.90;;;;;;4918130;29;20216;-67
2022/04/06 07:50:49;;;;;;;2.30;0.50;;;10.10;99.90;;;;;;4916748;29;20636;-70
2022/04/06 07:53:17;;;;;;;2.00;0.50;;;10.10;99.90;;;;;;4924280;29;20574;-66
2022/04/06 07:55:46;;;;;;;1.10;0.40;;;10.20;99.90;;;;;;4935517;29;20240;-67
2022/04/06 07:58:13;;;;;;;1.93;0.53;;;10.50;99.90;;;;;;4935547;29;20215;-67
2022/04/06 08:00:40;;;;;;;1.10;0.43;;;10.70;99.90;;;;;;4929985;29;20235;-70
2022/04/06 08:03:07;;;;;;;2.07;0.53;;;10.70;99.90;;;;;;4935353;29;20295;-71
2022/04/06 08:05:35;;;;;;;2.20;0.40;;;10.60;99.90;;;;;;4935438;29;20220;-71
2022/04/06 08:08:02;;;;;;;3.37;0.50;;;10.60;99.90;;;;;;4936111;29;20212;-71
2022/04/06 08:10:30;;;;;;;4.47;0.53;;;10.60;99.90;;;;;;4927229;29;20224;-67
2022/04/06 08:12:58;;;;;;;0.40;0.27;;;10.60;99.90;;;;;;4935600;29;20300;-67
2022/04/06 08:15:25;;;;;;;1.03;0.50;;;10.60;99.90;;;;;;4918255;29;20237;-70
2022/04/06 08:17:52;;;;;;;1.57;0.50;;;10.70;99.90;;;;;;4916672;29;20233;-68
2022/04/06 08:20:20;;;;;;;1.03;0.60;;;10.70;99.90;;;;;;4916481;29;20225;-69
2022/04/06 08:22:48;;;;;;;2.47;0.30;;;10.90;99.90;;;;;;4916491;29;20682;-66
2022/04/06 08:25:16;;;;;;;1.57;0.67;;;10.90;99.90;;;;;;4916189;29;20209;-70
2022/04/06 08:27:43;;;;;;;1.63;0.50;;;10.90;99.90;;;;;;4916423;29;20659;-66
2022/04/06 08:30:13;;;;;;;0.93;0.37;;;10.90;99.90;;;;;;4916710;29;20707;-67
2022/04/06 08:32:40;;;;;;;2.67;0.63;;;11.00;99.90;;;;;;4917139;29;20285;-66
2022/04/06 08:35:09;;;;;;;1.87;0.60;;;11.20;99.90;;;;;;4927954;29;20226;-69
2022/04/06 08:37:37;;;;;;;1.43;0.43;;;11.10;99.90;;;;;;4927109;29;20205;-66
2022/04/06 08:40:07;;;;;;;3.60;0.40;;;11.20;99.90;;;;;;4934875;29;20209;-67
2022/04/06 08:42:35;;;;;;;1.93;0.60;;;11.40;99.90;;;;;;4935598;29;20212;-69
2022/04/06 08:45:02;;;;;;;3.60;0.40;;;11.60;99.90;;;;;;4935104;29;20216;-69
2022/04/06 08:47:32;;;;;;;2.53;0.50;;;11.80;99.90;;;;;;4935229;29;20209;-70
2022/04/06 08:49:59;;;;;;;1.20;0.50;;;12.00;99.90;;;;;;4934797;29;20209;-70
2022/04/06 08:52:26;;;;;;;2.60;0.70;;;11.90;99.90;;;;;;4934957;29;20204;-70
2022/04/06 08:54:53;;;;;;;1.73;0.50;;;11.90;99.90;;;;;;4935306;29;20275;-68
2022/04/06 08:57:21;;;;;;;1.10;0.60;;;11.80;99.90;;;;;;4935022;29;20197;-67
2022/04/06 08:59:49;;;;;;;1.13;0.40;;;11.90;99.90;;;;;;4934862;29;20219;-66
2022/04/06 09:02:18;;;;;;;2.70;0.50;;;12.00;99.90;;;;;;4933991;29;20229;-69
2022/04/06 09:04:50;;;;;;;5.40;0.60;;;12.00;99.90;;;;;;4920379;29;20244;-69
2022/04/06 09:07:20;;;;;;;2.60;0.50;;;12.00;99.90;;;;;;4915736;29;20439;-68
2022/04/06 09:09:50;;;;;;;0.50;0.50;;;12.00;99.90;;;;;;4916145;29;20210;-67
2022/04/06 09:12:19;;;;;;;3.27;0.60;;;11.80;99.90;;;;;;4921280;29;20245;-67
2022/04/06 09:14:47;;;;;;;0.60;0.40;;;11.90;99.90;;;;;;4935839;29;20243;-68
2022/04/06 09:17:19;;;;;;;1.70;0.40;;;12.10;99.90;;;;;;4929658;29;20252;-68
2022/04/06 09:19:49;;;;;;;0.70;0.40;;;12.10;99.90;;;;;;4922302;29;20202;-70
2022/04/06 09:22:17;;;;;;;1.90;0.87;;;12.30;99.90;;;;;;4935853;29;20225;-70
2022/04/06 09:24:43;;;;;;;1.60;0.47;;;12.50;99.90;;;;;;4939124;29;20271;-68
2022/04/06 09:27:10;;;;;;;1.67;0.40;;;12.70;99.90;;;;;;4932287;29;20193;-68
2022/04/06 09:29:37;;;;;;;2.47;0.60;;;12.70;99.90;;;;;;4938245;29;20212;-70
2022/04/06 09:32:08;;;;;;;1.60;0.40;;;12.50;99.90;;;;;;4938205;29;20231;-67
2022/04/06 09:34:36;;;;;;;2.07;0.73;;;12.30;99.90;;;;;;4938147;29;20670;-67
2022/04/06 09:37:25;;;;;;;1.23;0.60;;;12.30;99.90;;;;;;4937717;29;20215;-67
2022/04/06 09:39:53;;;;;;;1.77;0.50;;;12.30;99.90;;;;;;4938281;29;20208;-67
2022/04/06 09:42:22;;;;;;;1.53;0.50;;;12.20;99.90;;;;;;4938546;29;20228;-72
2022/04/06 09:47:40;;;;;;;1.97;0.77;;;12.20;99.90;;;;;;4938415;29;20211;-67
2022/04/06 09:50:14;;;;;;;3.20;0.80;;;12.10;99.90;;;;;;4938191;29;20681;-70
2022/04/06 09:52:43;;;;;;;3.83;0.77;;;11.80;99.90;;;;;;4937494;29;20209;-72
2022/04/06 09:55:11;;;;;;;2.87;0.70;;;11.70;99.90;;;;;;4938211;29;20236;-67
2022/04/06 09:57:44;;;;;;;1.23;0.77;;;11.80;99.90;;;;;;4938491;29;20209;-71
2022/04/06 10:00:16;;;;;;;2.77;0.70;;;12.00;99.90;;;;;;4938159;29;20205;-72
2022/04/06 10:02:43;;;;;;;1.27;0.50;;;12.10;99.90;;;;;;4937998;29;20205;-71
2022/04/06 10:05:13;;;;;;;0.63;0.50;;;12.20;99.90;;;;;;4938126;29;20216;-72
2022/04/06 10:07:43;;;;;;;2.37;0.70;;;12.10;99.90;;;;;;4938146;29;20209;-71
2022/04/06 10:10:11;;;;;;;4.83;1.13;;;12.00;99.90;;;;;;4937685;29;20208;-71
2022/04/06 10:12:38;;;;;;;1.30;0.53;;;12.00;99.90;;;;;;4938401;29;20223;-71
2022/04/06 10:15:06;;;;;;;2.03;0.90;;;12.20;99.90;;;;;;4938184;29;20271;-72
2022/04/06 10:17:35;;;;;;;1.10;0.70;;;12.40;99.90;;;;;;4938150;29;20227;-72
2022/04/06 10:20:09;;;;;;;2.17;0.80;;;12.50;99.90;;;;;;4926027;29;20237;-72
2022/04/06 10:22:54;;;;;;;2.30;0.83;;;12.40;99.90;;;;;;4935997;29;20210;-72
2022/04/06 10:25:31;;;;;;;2.10;0.80;;;12.40;99.90;;;;;;4937541;29;20689;-67
2022/04/06 10:28:00;;;;;;;0.83;0.70;;;12.50;99.90;;;;;;4932014;29;20202;-72
2022/04/06 10:30:29;;;;;;;1.77;0.90;;;12.40;99.90;;;;;;4918714;29;20229;-71
2022/04/06 10:32:58;;;;;;;1.77;0.83;;;12.40;99.90;;;;;;4918787;29;20209;-72
2022/04/06 10:35:27;;;;;;;0.97;0.77;;;12.40;99.90;;;;;;4918306;29;20245;-67
2022/04/06 10:38:16;;;;;;;1.13;0.70;;;12.00;99.90;;;;;;4918695;29;20213;-67
2022/04/06 10:40:57;;;;;;;3.20;0.97;;;11.90;99.90;;;;;;4918685;29;20233;-68
2022/04/06 10:43:50;;;;;;;2.10;0.90;;;12.00;99.90;;;;;;4921973;29;20205;-70
2022/04/06 10:46:19;;;;;;;1.20;0.70;;;12.20;99.90;;;;;;4937600;29;20685;-71
2022/04/06 10:49:10;;;;;;;2.53;1.10;;;12.10;99.90;;;;;;4937764;29;20212;-73
2022/04/06 10:51:38;;;;;;;1.47;0.90;;;12.30;99.90;;;;;;4920992;29;20322;-71
2022/04/06 10:54:38;;;;;;;1.17;0.70;;;12.20;99.90;;;;;;4918354;29;20209;-72
2022/04/06 10:57:07;;;;;;;4.50;0.93;;;12.40;99.90;;;;;;4918455;29;20233;-70
2022/04/06 10:59:34;;;;;;;3.87;0.87;;;12.40;99.90;;;;;;4918073;29;20296;-73
2022/04/06 11:02:18;;;;;;;1.17;0.83;;;12.30;99.90;;;;;;4932457;29;20229;-73
2022/04/06 11:04:46;;;;;;;2.00;0.57;;;12.40;99.90;;;;;;4937244;29;20213;-72
2022/04/06 11:07:15;;;;;;;2.17;0.80;;;12.20;99.90;;;;;;4937481;29;20213;-71
2022/04/06 11:12:31;;;;;;;4.10;0.90;;;12.30;99.90;;;;;;4936189;29;20255;-71
2022/04/06 11:15:20;;;;;;;4.60;0.77;;;12.20;99.90;;;;;;4937067;29;20208;-72
2022/04/06 11:17:48;;;;;;;4.97;0.90;;;12.20;99.90;;;;;;4936984;29;20217;-71
2022/04/06 11:20:17;;;;;;;1.07;0.70;;;12.20;99.90;;;;;;4932113;29;20208;-70
2022/04/06 11:22:50;;;;;;;3.33;1.67;;;12.20;99.90;;;;;;4936237;29;20855;-68
2022/04/06 11:25:20;;;;;;;2.33;0.73;;;12.20;99.90;;;;;;4933387;29;20205;-72
2022/04/06 11:27:49;;;;;;;2.07;0.70;;;12.50;99.90;;;;;;4928161;29;20208;-72
2022/04/06 11:30:17;;;;;;;2.30;1.10;;;12.60;99.90;;;;;;4936857;29;20587;-69
2022/04/06 11:32:51;;;;;;;2.20;1.00;;;12.60;99.90;;;;;;4918348;29;20227;-70
2022/04/06 11:35:18;;;;;;;1.03;0.67;;;12.40;99.90;;;;;;4917532;29;20218;-71
2022/04/06 11:37:47;;;;;;;1.10;0.80;;;12.40;99.90;;;;;;4917327;29;20693;-69
2022/04/06 11:40:14;;;;;;;1.23;0.70;;;12.30;99.90;;;;;;4917662;29;20579;-66
2022/04/06 11:42:41;;;;;;;1.60;0.70;;;12.30;99.90;;;;;;4917559;29;20218;-66
2022/04/06 11:45:10;;;;;;;1.77;0.63;;;12.40;99.90;;;;;;4935977;29;20201;-67
2022/04/06 11:47:38;;;;;;;1.50;0.73;;;12.30;99.90;;;;;;4935840;29;20626;-65
2022/04/06 11:50:07;;;;;;;2.67;0.63;;;12.30;99.90;;;;;;4935867;29;20217;-65
2022/04/06 11:52:34;;;;;;;1.73;0.53;;;12.30;99.90;;;;;;4936368;29;20213;-65
2022/04/06 11:55:01;;;;;;;2.57;0.70;;;12.50;99.90;;;;;;4936131;29;20217;-65
2022/04/06 11:57:35;;;;;;;1.37;0.70;;;12.70;99.90;;;;;;4936203;29;20268;-66
2022/04/06 12:00:04;;;;;;;2.47;0.60;;;12.80;99.90;;;;;;4935913;29;20216;-65
2022/04/06 12:02:48;;;;;;;0.90;0.70;;;12.60;99.90;;;;;;4934925;29;20209;-66
2022/04/06 12:05:16;;;;;;;1.83;0.70;;;12.70;99.90;;;;;;4916884;29;20604;-66
2022/04/06 12:07:43;;;;;;;0.90;0.70;;;12.60;99.90;;;;;;4917045;29;20301;-65
2022/04/06 12:10:10;;;;;;;2.17;1.00;;;12.40;99.90;;;;;;4916885;29;20215;-65
2022/04/06 12:12:37;;;;;;;3.20;1.03;;;12.30;99.90;;;;;;4916899;29;20667;-67
2022/04/06 12:15:05;;;;;;;0.83;0.70;;;12.20;99.90;;;;;;4916959;29;20245;-66
2022/04/06 12:17:33;;;;;;;2.03;0.90;;;12.30;99.90;;;;;;4916709;29;20721;-66
2022/04/06 12:20:02;;;;;;;1.33;0.60;;;12.20;99.90;;;;;;4919120;29;20219;-65
2022/04/06 12:22:29;;;;;;;2.23;1.17;;;12.20;99.90;;;;;;4935159;29;20237;-65
2022/04/06 12:24:56;;;;;;;2.13;0.80;;;12.00;99.90;;;;;;4935689;29;20260;-68
2022/04/06 12:27:30;;;;;;;0.70;0.60;;;12.10;99.90;;;;;;4932454;29;20205;-69
2022/04/06 12:30:08;;;;;;;1.53;0.77;;;12.10;99.90;;;;;;4935881;29;20223;-70
2022/04/06 12:32:45;;;;;;;1.50;0.67;;;12.10;99.90;;;;;;4935844;29;20208;-66
2022/04/06 12:35:21;;;;;;;3.17;0.70;;;12.10;99.90;;;;;;4935360;29;20280;-66
2022/04/06 12:37:48;;;;;;;1.43;0.77;;;12.00;99.90;;;;;;4935620;29;20236;-67
2022/04/06 12:40:23;;;;;;;3.53;1.20;;;12.10;99.90;;;;;;4927297;29;20204;-71
2022/04/06 12:42:49;;;;;;;2.73;0.83;;;12.40;99.90;;;;;;4916673;29;20208;-69
2022/04/06 12:45:18;;;;;;;1.60;0.97;;;12.40;99.90;;;;;;4916645;29;20209;-66
2022/04/06 12:47:45;;;;;;;2.97;1.50;;;12.30;99.90;;;;;;4925500;29;20219;-66
2022/04/06 12:50:18;;;;;;;1.77;1.00;;;12.20;99.90;;;;;;4934903;29;20219;-66
2022/04/06 12:53:02;;;;;;;2.13;0.93;;;12.40;99.90;;;;;;4935267;29;20212;-66
2022/04/06 12:55:29;;;;;;;3.03;0.90;;;12.20;99.90;;;;;;4935188;29;20753;-66
2022/04/06 12:58:14;;;;;;;4.40;1.37;;;12.10;99.90;;;;;;4934957;29;20709;-69
2022/04/06 13:00:41;;;;;;;3.10;1.33;;;12.20;99.90;;;;;;4935256;29;20260;-66
2022/04/06 13:03:09;;;;;;;2.20;1.27;;;12.20;99.90;;;;;;4934111;29;20688;-66
2022/04/06 13:05:36;;;;;;;2.73;1.70;;;12.00;99.90;;;;;;4935586;29;20205;-65